sensor_id;sensor_type;location;lat;lon;timestamp;P1;durP1;ratioP1;P2;durP2;ratioP2
56830;SDS011;42713;42.676;23.352;2023-03-09T00:00:05;18.42;;;7.88;;
56830;SDS011;42713;42.676;23.352;2023-03-09T00:02:35;18.63;;;8.43;;
56830;SDS011;42713;42.676;23.352;2023-03-09T00:05:01;20.08;;;7.85;;
56830;SDS011;42713;42.676;23.352;2023-03-09T00:07:27;22.50;;;7.75;;
56830;SDS011;42713;42.676;23.352;2023-03-09T00:09:55;18.40;;;7.72;;
56830;SDS011;42713;42.676;23.352;2023-03-09T00:12:22;18.55;;;8.13;;
56830;SDS011;42713;42.676;23.352;2023-03-09T00:14:51;15.80;;;7.50;;
56830;SDS011;42713;42.676;23.352;2023-03-09T00:17:17;17.30;;;7.95;;
56830;SDS011;42713;42.676;23.352;2023-03-09T00:19:43;19.17;;;8.20;;
56830;SDS011;42713;42.676;23.352;2023-03-09T00:22:08;17.08;;;8.63;;
56830;SDS011;42713;42.676;23.352;2023-03-09T00:24:34;16.17;;;7.00;;
56830;SDS011;42713;42.676;23.352;2023-03-09T00:27:00;15.95;;;6.80;;
56830;SDS011;42713;42.676;23.352;2023-03-09T00:29:27;16.50;;;7.57;;
56830;SDS011;42713;42.676;23.352;2023-03-09T00:31:54;16.92;;;6.90;;
56830;SDS011;42713;42.676;23.352;2023-03-09T00:34:20;13.38;;;6.53;;
56830;SDS011;42713;42.676;23.352;2023-03-09T00:36:47;16.98;;;6.75;;
56830;SDS011;42713;42.676;23.352;2023-03-09T00:39:13;15.50;;;7.00;;
56830;SDS011;42713;42.676;23.352;2023-03-09T00:41:40;15.77;;;6.97;;
56830;SDS011;42713;42.676;23.352;2023-03-09T00:44:05;16.92;;;6.65;;
56830;SDS011;42713;42.676;23.352;2023-03-09T00:46:32;14.98;;;5.88;;
56830;SDS011;42713;42.676;23.352;2023-03-09T00:48:58;16.67;;;6.43;;
56830;SDS011;42713;42.676;23.352;2023-03-09T00:51:24;14.70;;;5.53;;
56830;SDS011;42713;42.676;23.352;2023-03-09T00:53:51;15.88;;;7.05;;
56830;SDS011;42713;42.676;23.352;2023-03-09T00:56:17;13.35;;;5.82;;
56830;SDS011;42713;42.676;23.352;2023-03-09T00:58:44;15.05;;;5.95;;
56830;SDS011;42713;42.676;23.352;2023-03-09T01:01:11;20.38;;;6.10;;
56830;SDS011;42713;42.676;23.352;2023-03-09T01:03:38;12.25;;;5.50;;
56830;SDS011;42713;42.676;23.352;2023-03-09T01:06:04;12.88;;;5.68;;
56830;SDS011;42713;42.676;23.352;2023-03-09T01:08:30;18.20;;;6.10;;
56830;SDS011;42713;42.676;23.352;2023-03-09T01:10:56;13.00;;;5.78;;
56830;SDS011;42713;42.676;23.352;2023-03-09T01:13:22;14.15;;;6.07;;
56830;SDS011;42713;42.676;23.352;2023-03-09T01:15:48;16.23;;;6.38;;
56830;SDS011;42713;42.676;23.352;2023-03-09T01:18:13;14.65;;;5.93;;
56830;SDS011;42713;42.676;23.352;2023-03-09T01:20:39;12.63;;;5.47;;
56830;SDS011;42713;42.676;23.352;2023-03-09T01:23:04;14.75;;;6.32;;
56830;SDS011;42713;42.676;23.352;2023-03-09T01:25:30;14.88;;;6.70;;
56830;SDS011;42713;42.676;23.352;2023-03-09T01:27:55;14.38;;;6.00;;
56830;SDS011;42713;42.676;23.352;2023-03-09T01:30:21;15.98;;;6.20;;
56830;SDS011;42713;42.676;23.352;2023-03-09T01:32:46;16.38;;;5.90;;
56830;SDS011;42713;42.676;23.352;2023-03-09T01:35:11;15.40;;;6.72;;
56830;SDS011;42713;42.676;23.352;2023-03-09T01:37:37;17.70;;;6.22;;
56830;SDS011;42713;42.676;23.352;2023-03-09T01:40:03;13.02;;;6.10;;
56830;SDS011;42713;42.676;23.352;2023-03-09T01:42:31;13.20;;;5.88;;
56830;SDS011;42713;42.676;23.352;2023-03-09T01:46:27;14.80;;;5.57;;
56830;SDS011;42713;42.676;23.352;2023-03-09T01:47:59;14.57;;;5.13;;
56830;SDS011;42713;42.676;23.352;2023-03-09T01:50:26;13.07;;;5.53;;
56830;SDS011;42713;42.676;23.352;2023-03-09T01:52:56;18.17;;;5.68;;
56830;SDS011;42713;42.676;23.352;2023-03-09T01:55:27;13.75;;;5.80;;
56830;SDS011;42713;42.676;23.352;2023-03-09T01:58:10;15.90;;;5.43;;
56830;SDS011;42713;42.676;23.352;2023-03-09T02:00:49;12.48;;;5.25;;
56830;SDS011;42713;42.676;23.352;2023-03-09T02:03:22;12.18;;;5.32;;
56830;SDS011;42713;42.676;23.352;2023-03-09T02:05:57;15.57;;;5.20;;
56830;SDS011;42713;42.676;23.352;2023-03-09T02:08:27;16.25;;;5.93;;
56830;SDS011;42713;42.676;23.352;2023-03-09T02:10:56;11.25;;;5.35;;
56830;SDS011;42713;42.676;23.352;2023-03-09T02:13:31;14.30;;;4.68;;
56830;SDS011;42713;42.676;23.352;2023-03-09T02:16:00;11.48;;;4.53;;
56830;SDS011;42713;42.676;23.352;2023-03-09T02:18:26;12.90;;;4.85;;
56830;SDS011;42713;42.676;23.352;2023-03-09T02:23:48;13.40;;;4.55;;
56830;SDS011;42713;42.676;23.352;2023-03-09T02:26:18;10.38;;;4.60;;
56830;SDS011;42713;42.676;23.352;2023-03-09T02:29:01;13.02;;;4.43;;
56830;SDS011;42713;42.676;23.352;2023-03-09T02:31:27;11.73;;;4.80;;
56830;SDS011;42713;42.676;23.352;2023-03-09T02:33:52;12.23;;;4.35;;
56830;SDS011;42713;42.676;23.352;2023-03-09T02:36:18;14.25;;;5.05;;
56830;SDS011;42713;42.676;23.352;2023-03-09T02:38:48;16.73;;;5.13;;
56830;SDS011;42713;42.676;23.352;2023-03-09T02:41:14;10.68;;;4.38;;
56830;SDS011;42713;42.676;23.352;2023-03-09T02:43:47;11.68;;;4.40;;
56830;SDS011;42713;42.676;23.352;2023-03-09T02:46:18;10.75;;;3.90;;
56830;SDS011;42713;42.676;23.352;2023-03-09T02:48:43;10.80;;;4.55;;
56830;SDS011;42713;42.676;23.352;2023-03-09T02:51:09;10.20;;;4.32;;
56830;SDS011;42713;42.676;23.352;2023-03-09T02:53:34;10.25;;;4.35;;
56830;SDS011;42713;42.676;23.352;2023-03-09T02:56:00;10.98;;;4.25;;
56830;SDS011;42713;42.676;23.352;2023-03-09T02:58:26;11.98;;;4.30;;
56830;SDS011;42713;42.676;23.352;2023-03-09T03:00:51;11.60;;;4.28;;
56830;SDS011;42713;42.676;23.352;2023-03-09T03:03:16;9.90;;;3.95;;
56830;SDS011;42713;42.676;23.352;2023-03-09T03:05:45;9.40;;;4.00;;
56830;SDS011;42713;42.676;23.352;2023-03-09T03:08:11;13.40;;;4.43;;
56830;SDS011;42713;42.676;23.352;2023-03-09T03:10:37;12.57;;;4.65;;
56830;SDS011;42713;42.676;23.352;2023-03-09T03:13:02;13.07;;;4.72;;
56830;SDS011;42713;42.676;23.352;2023-03-09T03:15:28;10.93;;;3.90;;
56830;SDS011;42713;42.676;23.352;2023-03-09T03:17:53;14.13;;;4.25;;
56830;SDS011;42713;42.676;23.352;2023-03-09T03:20:19;10.43;;;4.20;;
56830;SDS011;42713;42.676;23.352;2023-03-09T03:22:44;10.85;;;4.55;;
56830;SDS011;42713;42.676;23.352;2023-03-09T03:25:10;10.75;;;4.53;;
56830;SDS011;42713;42.676;23.352;2023-03-09T03:27:37;12.13;;;4.05;;
56830;SDS011;42713;42.676;23.352;2023-03-09T03:30:02;14.50;;;3.90;;
56830;SDS011;42713;42.676;23.352;2023-03-09T03:32:28;10.55;;;3.95;;
56830;SDS011;42713;42.676;23.352;2023-03-09T03:34:54;9.30;;;3.75;;
56830;SDS011;42713;42.676;23.352;2023-03-09T03:37:20;9.45;;;3.40;;
56830;SDS011;42713;42.676;23.352;2023-03-09T03:39:45;8.35;;;3.08;;
56830;SDS011;42713;42.676;23.352;2023-03-09T03:42:11;10.55;;;3.78;;
56830;SDS011;42713;42.676;23.352;2023-03-09T03:44:37;10.88;;;3.05;;
56830;SDS011;42713;42.676;23.352;2023-03-09T03:47:02;11.95;;;3.90;;
56830;SDS011;42713;42.676;23.352;2023-03-09T03:49:27;12.95;;;4.65;;
56830;SDS011;42713;42.676;23.352;2023-03-09T03:51:53;13.15;;;4.13;;
56830;SDS011;42713;42.676;23.352;2023-03-09T03:54:18;12.38;;;3.83;;
56830;SDS011;42713;42.676;23.352;2023-03-09T03:56:44;8.52;;;3.47;;
56830;SDS011;42713;42.676;23.352;2023-03-09T03:59:09;10.63;;;4.10;;
56830;SDS011;42713;42.676;23.352;2023-03-09T04:01:35;9.40;;;3.42;;
56830;SDS011;42713;42.676;23.352;2023-03-09T04:04:01;11.98;;;3.15;;
56830;SDS011;42713;42.676;23.352;2023-03-09T04:06:27;9.63;;;3.40;;
56830;SDS011;42713;42.676;23.352;2023-03-09T04:08:52;9.52;;;3.28;;
56830;SDS011;42713;42.676;23.352;2023-03-09T04:11:17;11.23;;;3.80;;
56830;SDS011;42713;42.676;23.352;2023-03-09T04:13:46;10.48;;;3.92;;
56830;SDS011;42713;42.676;23.352;2023-03-09T04:16:12;10.73;;;3.80;;
56830;SDS011;42713;42.676;23.352;2023-03-09T04:18:38;8.35;;;3.47;;
56830;SDS011;42713;42.676;23.352;2023-03-09T04:21:03;14.98;;;4.28;;
56830;SDS011;42713;42.676;23.352;2023-03-09T04:23:29;9.57;;;3.47;;
56830;SDS011;42713;42.676;23.352;2023-03-09T04:25:59;11.60;;;4.03;;
56830;SDS011;42713;42.676;23.352;2023-03-09T04:28:26;9.80;;;3.67;;
56830;SDS011;42713;42.676;23.352;2023-03-09T04:30:51;10.23;;;3.90;;
56830;SDS011;42713;42.676;23.352;2023-03-09T04:33:17;9.88;;;3.25;;
56830;SDS011;42713;42.676;23.352;2023-03-09T04:35:43;12.30;;;3.75;;
56830;SDS011;42713;42.676;23.352;2023-03-09T04:38:09;12.60;;;3.28;;
56830;SDS011;42713;42.676;23.352;2023-03-09T04:40:35;12.82;;;4.25;;
56830;SDS011;42713;42.676;23.352;2023-03-09T04:43:01;12.27;;;4.05;;
56830;SDS011;42713;42.676;23.352;2023-03-09T04:45:27;17.40;;;5.40;;
56830;SDS011;42713;42.676;23.352;2023-03-09T04:47:53;14.48;;;4.70;;
56830;SDS011;42713;42.676;23.352;2023-03-09T04:50:19;10.43;;;4.07;;
56830;SDS011;42713;42.676;23.352;2023-03-09T04:52:44;9.05;;;3.75;;
56830;SDS011;42713;42.676;23.352;2023-03-09T04:55:10;11.77;;;3.33;;
56830;SDS011;42713;42.676;23.352;2023-03-09T04:57:35;8.90;;;3.55;;
56830;SDS011;42713;42.676;23.352;2023-03-09T05:00:01;11.23;;;3.40;;
56830;SDS011;42713;42.676;23.352;2023-03-09T05:02:29;8.32;;;3.22;;
56830;SDS011;42713;42.676;23.352;2023-03-09T05:04:55;10.77;;;3.42;;
56830;SDS011;42713;42.676;23.352;2023-03-09T05:07:20;11.93;;;2.70;;
56830;SDS011;42713;42.676;23.352;2023-03-09T05:09:46;10.00;;;2.95;;
56830;SDS011;42713;42.676;23.352;2023-03-09T05:12:11;10.90;;;3.00;;
56830;SDS011;42713;42.676;23.352;2023-03-09T05:14:37;9.57;;;2.83;;
56830;SDS011;42713;42.676;23.352;2023-03-09T05:17:02;11.80;;;3.22;;
56830;SDS011;42713;42.676;23.352;2023-03-09T05:19:29;10.02;;;3.00;;
56830;SDS011;42713;42.676;23.352;2023-03-09T05:21:55;9.80;;;2.78;;
56830;SDS011;42713;42.676;23.352;2023-03-09T05:24:20;8.90;;;2.67;;
56830;SDS011;42713;42.676;23.352;2023-03-09T05:26:45;7.43;;;3.17;;
56830;SDS011;42713;42.676;23.352;2023-03-09T05:29:11;8.55;;;3.40;;
56830;SDS011;42713;42.676;23.352;2023-03-09T05:31:36;10.23;;;2.90;;
56830;SDS011;42713;42.676;23.352;2023-03-09T05:34:02;8.93;;;3.05;;
56830;SDS011;42713;42.676;23.352;2023-03-09T05:36:28;12.88;;;3.20;;
56830;SDS011;42713;42.676;23.352;2023-03-09T05:39:03;9.68;;;2.90;;
56830;SDS011;42713;42.676;23.352;2023-03-09T05:41:41;11.27;;;3.10;;
56830;SDS011;42713;42.676;23.352;2023-03-09T05:44:18;11.52;;;3.47;;
56830;SDS011;42713;42.676;23.352;2023-03-09T05:46:53;13.25;;;5.22;;
56830;SDS011;42713;42.676;23.352;2023-03-09T05:49:19;11.18;;;3.90;;
56830;SDS011;42713;42.676;23.352;2023-03-09T05:51:44;11.48;;;3.88;;
56830;SDS011;42713;42.676;23.352;2023-03-09T05:54:10;13.95;;;4.30;;
56830;SDS011;42713;42.676;23.352;2023-03-09T05:56:36;14.10;;;3.90;;
56830;SDS011;42713;42.676;23.352;2023-03-09T05:59:01;19.83;;;7.32;;
56830;SDS011;42713;42.676;23.352;2023-03-09T06:01:28;20.60;;;7.18;;
56830;SDS011;42713;42.676;23.352;2023-03-09T06:03:53;23.85;;;6.43;;
56830;SDS011;42713;42.676;23.352;2023-03-09T06:06:20;19.98;;;7.57;;
56830;SDS011;42713;42.676;23.352;2023-03-09T06:08:46;26.83;;;7.53;;
56830;SDS011;42713;42.676;23.352;2023-03-09T06:11:12;19.10;;;6.78;;
56830;SDS011;42713;42.676;23.352;2023-03-09T06:13:38;22.35;;;7.32;;
56830;SDS011;42713;42.676;23.352;2023-03-09T06:16:07;19.25;;;7.90;;
56830;SDS011;42713;42.676;23.352;2023-03-09T06:18:35;27.90;;;8.77;;
56830;SDS011;42713;42.676;23.352;2023-03-09T06:21:03;19.80;;;7.40;;
56830;SDS011;42713;42.676;23.352;2023-03-09T06:23:30;22.93;;;7.53;;
56830;SDS011;42713;42.676;23.352;2023-03-09T06:25:56;17.17;;;7.95;;
56830;SDS011;42713;42.676;23.352;2023-03-09T06:28:22;22.92;;;7.03;;
56830;SDS011;42713;42.676;23.352;2023-03-09T06:30:49;15.38;;;6.20;;
56830;SDS011;42713;42.676;23.352;2023-03-09T06:33:14;15.07;;;5.28;;
56830;SDS011;42713;42.676;23.352;2023-03-09T06:35:40;13.88;;;5.20;;
56830;SDS011;42713;42.676;23.352;2023-03-09T06:38:06;14.00;;;5.43;;
56830;SDS011;42713;42.676;23.352;2023-03-09T06:40:32;14.70;;;5.90;;
56830;SDS011;42713;42.676;23.352;2023-03-09T06:42:57;15.73;;;5.70;;
56830;SDS011;42713;42.676;23.352;2023-03-09T06:45:23;12.52;;;6.07;;
56830;SDS011;42713;42.676;23.352;2023-03-09T06:47:53;12.70;;;4.75;;
56830;SDS011;42713;42.676;23.352;2023-03-09T06:50:20;18.02;;;5.35;;
56830;SDS011;42713;42.676;23.352;2023-03-09T06:52:46;14.57;;;5.35;;
56830;SDS011;42713;42.676;23.352;2023-03-09T06:55:11;12.05;;;4.68;;
56830;SDS011;42713;42.676;23.352;2023-03-09T06:57:38;14.85;;;5.15;;
56830;SDS011;42713;42.676;23.352;2023-03-09T07:00:04;14.65;;;5.18;;
56830;SDS011;42713;42.676;23.352;2023-03-09T07:02:31;15.20;;;6.68;;
56830;SDS011;42713;42.676;23.352;2023-03-09T07:04:57;22.77;;;5.65;;
56830;SDS011;42713;42.676;23.352;2023-03-09T07:07:23;15.02;;;6.07;;
56830;SDS011;42713;42.676;23.352;2023-03-09T07:09:48;14.93;;;5.32;;
56830;SDS011;42713;42.676;23.352;2023-03-09T07:12:14;13.80;;;5.40;;
56830;SDS011;42713;42.676;23.352;2023-03-09T07:14:39;13.77;;;4.95;;
56830;SDS011;42713;42.676;23.352;2023-03-09T07:17:05;17.83;;;5.20;;
56830;SDS011;42713;42.676;23.352;2023-03-09T07:19:31;18.02;;;5.55;;
56830;SDS011;42713;42.676;23.352;2023-03-09T07:21:56;13.52;;;4.25;;
56830;SDS011;42713;42.676;23.352;2023-03-09T07:24:22;15.20;;;5.22;;
56830;SDS011;42713;42.676;23.352;2023-03-09T07:26:47;22.13;;;6.25;;
56830;SDS011;42713;42.676;23.352;2023-03-09T07:29:14;14.60;;;5.45;;
56830;SDS011;42713;42.676;23.352;2023-03-09T07:31:40;14.30;;;5.35;;
56830;SDS011;42713;42.676;23.352;2023-03-09T07:34:05;16.02;;;4.85;;
56830;SDS011;42713;42.676;23.352;2023-03-09T07:36:31;14.73;;;6.00;;
56830;SDS011;42713;42.676;23.352;2023-03-09T07:38:57;14.70;;;5.95;;
56830;SDS011;42713;42.676;23.352;2023-03-09T07:41:22;20.02;;;5.63;;
56830;SDS011;42713;42.676;23.352;2023-03-09T07:43:48;15.55;;;6.28;;
56830;SDS011;42713;42.676;23.352;2023-03-09T07:46:14;22.50;;;7.00;;
56830;SDS011;42713;42.676;23.352;2023-03-09T07:48:41;15.57;;;6.43;;
56830;SDS011;42713;42.676;23.352;2023-03-09T07:51:08;15.60;;;6.55;;
56830;SDS011;42713;42.676;23.352;2023-03-09T07:53:35;16.77;;;6.88;;
56830;SDS011;42713;42.676;23.352;2023-03-09T07:56:02;14.05;;;7.07;;
56830;SDS011;42713;42.676;23.352;2023-03-09T07:58:29;18.25;;;7.40;;
56830;SDS011;42713;42.676;23.352;2023-03-09T08:00:56;14.85;;;6.53;;
56830;SDS011;42713;42.676;23.352;2023-03-09T08:03:22;19.10;;;5.85;;
56830;SDS011;42713;42.676;23.352;2023-03-09T08:05:51;12.40;;;5.00;;
56830;SDS011;42713;42.676;23.352;2023-03-09T08:08:23;13.38;;;5.95;;
56830;SDS011;42713;42.676;23.352;2023-03-09T08:10:49;15.90;;;5.63;;
56830;SDS011;42713;42.676;23.352;2023-03-09T08:13:16;13.55;;;5.53;;
56830;SDS011;42713;42.676;23.352;2023-03-09T08:15:41;15.27;;;5.45;;
56830;SDS011;42713;42.676;23.352;2023-03-09T08:18:07;12.48;;;5.57;;
56830;SDS011;42713;42.676;23.352;2023-03-09T08:20:32;12.93;;;5.47;;
56830;SDS011;42713;42.676;23.352;2023-03-09T08:22:58;16.50;;;5.35;;
56830;SDS011;42713;42.676;23.352;2023-03-09T08:25:24;13.13;;;5.03;;
56830;SDS011;42713;42.676;23.352;2023-03-09T08:27:50;13.63;;;5.47;;
56830;SDS011;42713;42.676;23.352;2023-03-09T08:30:17;14.65;;;5.28;;
56830;SDS011;42713;42.676;23.352;2023-03-09T08:32:50;19.85;;;5.72;;
56830;SDS011;42713;42.676;23.352;2023-03-09T08:35:17;19.15;;;5.68;;
56830;SDS011;42713;42.676;23.352;2023-03-09T08:37:45;15.68;;;5.30;;
56830;SDS011;42713;42.676;23.352;2023-03-09T08:40:11;12.18;;;5.00;;
56830;SDS011;42713;42.676;23.352;2023-03-09T08:42:38;17.00;;;5.20;;
56830;SDS011;42713;42.676;23.352;2023-03-09T08:45:04;14.00;;;6.68;;
56830;SDS011;42713;42.676;23.352;2023-03-09T08:47:30;19.60;;;5.60;;
56830;SDS011;42713;42.676;23.352;2023-03-09T08:49:57;13.27;;;5.07;;
56830;SDS011;42713;42.676;23.352;2023-03-09T08:52:23;15.13;;;5.35;;
56830;SDS011;42713;42.676;23.352;2023-03-09T08:54:48;13.02;;;4.88;;
56830;SDS011;42713;42.676;23.352;2023-03-09T08:57:15;11.93;;;5.20;;
56830;SDS011;42713;42.676;23.352;2023-03-09T08:59:41;13.95;;;4.82;;
56830;SDS011;42713;42.676;23.352;2023-03-09T09:02:08;11.32;;;4.47;;
56830;SDS011;42713;42.676;23.352;2023-03-09T09:04:42;16.92;;;5.20;;
56830;SDS011;42713;42.676;23.352;2023-03-09T09:07:08;14.43;;;4.75;;
56830;SDS011;42713;42.676;23.352;2023-03-09T09:09:34;15.45;;;5.13;;
56830;SDS011;42713;42.676;23.352;2023-03-09T09:12:00;11.85;;;4.68;;
56830;SDS011;42713;42.676;23.352;2023-03-09T09:14:25;15.55;;;4.65;;
56830;SDS011;42713;42.676;23.352;2023-03-09T09:16:51;12.13;;;4.50;;
56830;SDS011;42713;42.676;23.352;2023-03-09T09:19:16;16.75;;;4.72;;
56830;SDS011;42713;42.676;23.352;2023-03-09T09:21:42;13.07;;;4.60;;
56830;SDS011;42713;42.676;23.352;2023-03-09T09:24:08;11.98;;;4.32;;
56830;SDS011;42713;42.676;23.352;2023-03-09T09:26:34;16.17;;;4.43;;
56830;SDS011;42713;42.676;23.352;2023-03-09T09:29:00;20.13;;;4.65;;
56830;SDS011;42713;42.676;23.352;2023-03-09T09:31:26;12.75;;;4.45;;
56830;SDS011;42713;42.676;23.352;2023-03-09T09:33:53;13.02;;;4.40;;
56830;SDS011;42713;42.676;23.352;2023-03-09T09:36:19;12.07;;;3.83;;
56830;SDS011;42713;42.676;23.352;2023-03-09T09:38:45;12.93;;;3.97;;
56830;SDS011;42713;42.676;23.352;2023-03-09T09:41:14;11.57;;;4.03;;
56830;SDS011;42713;42.676;23.352;2023-03-09T09:43:43;13.60;;;4.32;;
56830;SDS011;42713;42.676;23.352;2023-03-09T09:46:13;13.40;;;4.07;;
56830;SDS011;42713;42.676;23.352;2023-03-09T09:48:40;17.52;;;4.07;;
56830;SDS011;42713;42.676;23.352;2023-03-09T09:53:48;12.63;;;5.00;;
56830;SDS011;42713;42.676;23.352;2023-03-09T09:56:35;11.88;;;4.13;;
56830;SDS011;42713;42.676;23.352;2023-03-09T09:59:11;12.32;;;3.95;;
56830;SDS011;42713;42.676;23.352;2023-03-09T10:04:43;9.85;;;3.75;;
56830;SDS011;42713;42.676;23.352;2023-03-09T10:07:15;10.82;;;3.53;;
56830;SDS011;42713;42.676;23.352;2023-03-09T10:09:42;14.63;;;4.55;;
56830;SDS011;42713;42.676;23.352;2023-03-09T10:12:12;15.45;;;4.20;;
56830;SDS011;42713;42.676;23.352;2023-03-09T10:17:13;14.07;;;4.60;;
56830;SDS011;42713;42.676;23.352;2023-03-09T10:19:43;14.27;;;4.80;;
56830;SDS011;42713;42.676;23.352;2023-03-09T10:24:42;15.95;;;4.00;;
56830;SDS011;42713;42.676;23.352;2023-03-09T10:27:18;11.95;;;3.60;;
56830;SDS011;42713;42.676;23.352;2023-03-09T10:37:55;10.15;;;3.22;;
56830;SDS011;42713;42.676;23.352;2023-03-09T10:42:50;10.25;;;3.10;;
56830;SDS011;42713;42.676;23.352;2023-03-09T10:48:02;10.80;;;2.83;;
56830;SDS011;42713;42.676;23.352;2023-03-09T10:50:38;10.60;;;2.63;;
56830;SDS011;42713;42.676;23.352;2023-03-09T10:56:56;11.68;;;3.20;;
56830;SDS011;42713;42.676;23.352;2023-03-09T11:01:42;8.77;;;2.42;;
56830;SDS011;42713;42.676;23.352;2023-03-09T11:06:55;7.88;;;1.80;;
56830;SDS011;42713;42.676;23.352;2023-03-09T11:12:18;5.88;;;1.48;;
56830;SDS011;42713;42.676;23.352;2023-03-09T11:14:47;4.68;;;1.30;;
56830;SDS011;42713;42.676;23.352;2023-03-09T11:17:29;5.85;;;1.15;;
56830;SDS011;42713;42.676;23.352;2023-03-09T11:31:25;6.05;;;1.10;;
56830;SDS011;42713;42.676;23.352;2023-03-09T11:34:00;2.42;;;0.90;;
56830;SDS011;42713;42.676;23.352;2023-03-09T11:36:32;4.68;;;1.05;;
56830;SDS011;42713;42.676;23.352;2023-03-09T11:39:04;4.22;;;1.00;;
56830;SDS011;42713;42.676;23.352;2023-03-09T11:41:39;4.18;;;1.20;;
56830;SDS011;42713;42.676;23.352;2023-03-09T11:44:10;7.00;;;0.88;;
56830;SDS011;42713;42.676;23.352;2023-03-09T11:46:40;2.17;;;0.80;;
56830;SDS011;42713;42.676;23.352;2023-03-09T11:49:11;3.92;;;1.00;;
56830;SDS011;42713;42.676;23.352;2023-03-09T11:51:49;1.60;;;0.70;;
56830;SDS011;42713;42.676;23.352;2023-03-09T11:54:59;2.10;;;0.80;;
56830;SDS011;42713;42.676;23.352;2023-03-09T11:57:09;3.55;;;0.90;;
56830;SDS011;42713;42.676;23.352;2023-03-09T11:59:43;5.43;;;0.90;;
56830;SDS011;42713;42.676;23.352;2023-03-09T12:05:01;5.03;;;1.20;;
56830;SDS011;42713;42.676;23.352;2023-03-09T12:17:37;3.92;;;1.20;;
56830;SDS011;42713;42.676;23.352;2023-03-09T12:20:18;3.60;;;0.95;;
56830;SDS011;42713;42.676;23.352;2023-03-09T12:23:02;3.33;;;1.05;;
56830;SDS011;42713;42.676;23.352;2023-03-09T12:25:28;2.38;;;0.90;;
56830;SDS011;42713;42.676;23.352;2023-03-09T12:27:55;3.58;;;1.02;;
56830;SDS011;42713;42.676;23.352;2023-03-09T12:30:28;5.03;;;1.00;;
56830;SDS011;42713;42.676;23.352;2023-03-09T12:32:59;3.15;;;1.05;;
56830;SDS011;42713;42.676;23.352;2023-03-09T12:42:56;3.97;;;1.15;;
56830;SDS011;42713;42.676;23.352;2023-03-09T12:53:24;3.45;;;1.13;;
56830;SDS011;42713;42.676;23.352;2023-03-09T12:56:00;5.15;;;1.65;;
56830;SDS011;42713;42.676;23.352;2023-03-09T13:01:08;3.28;;;1.02;;
56830;SDS011;42713;42.676;23.352;2023-03-09T13:09:01;3.95;;;1.40;;
56830;SDS011;42713;42.676;23.352;2023-03-09T13:14:17;4.25;;;0.98;;
56830;SDS011;42713;42.676;23.352;2023-03-09T13:20:13;2.83;;;0.95;;
56830;SDS011;42713;42.676;23.352;2023-03-09T13:22:42;3.30;;;0.77;;
56830;SDS011;42713;42.676;23.352;2023-03-09T13:25:13;2.85;;;1.00;;
56830;SDS011;42713;42.676;23.352;2023-03-09T13:27:47;1.75;;;1.00;;
56830;SDS011;42713;42.676;23.352;2023-03-09T13:30:19;4.15;;;1.10;;
56830;SDS011;42713;42.676;23.352;2023-03-09T13:35:47;4.85;;;0.80;;
56830;SDS011;42713;42.676;23.352;2023-03-09T13:38:30;4.13;;;1.00;;
56830;SDS011;42713;42.676;23.352;2023-03-09T13:41:02;2.92;;;1.00;;
56830;SDS011;42713;42.676;23.352;2023-03-09T13:43:30;2.20;;;0.90;;
56830;SDS011;42713;42.676;23.352;2023-03-09T13:48:45;2.38;;;1.00;;
56830;SDS011;42713;42.676;23.352;2023-03-09T13:54:20;3.38;;;0.98;;
56830;SDS011;42713;42.676;23.352;2023-03-09T13:57:05;3.83;;;1.00;;
56830;SDS011;42713;42.676;23.352;2023-03-09T14:00:10;6.15;;;1.45;;
56830;SDS011;42713;42.676;23.352;2023-03-09T14:02:30;3.63;;;1.05;;
56830;SDS011;42713;42.676;23.352;2023-03-09T14:07:30;13.55;;;1.67;;
56830;SDS011;42713;42.676;23.352;2023-03-09T14:10:22;5.72;;;1.10;;
56830;SDS011;42713;42.676;23.352;2023-03-09T14:15:47;6.28;;;1.13;;
56830;SDS011;42713;42.676;23.352;2023-03-09T14:18:25;3.25;;;0.95;;
56830;SDS011;42713;42.676;23.352;2023-03-09T14:21:16;4.30;;;1.20;;
56830;SDS011;42713;42.676;23.352;2023-03-09T14:24:19;4.05;;;1.02;;
56830;SDS011;42713;42.676;23.352;2023-03-09T14:26:48;4.18;;;1.00;;
56830;SDS011;42713;42.676;23.352;2023-03-09T14:31:39;3.38;;;1.10;;
56830;SDS011;42713;42.676;23.352;2023-03-09T14:36:46;2.13;;;0.90;;
56830;SDS011;42713;42.676;23.352;2023-03-09T14:39:26;4.90;;;1.13;;
56830;SDS011;42713;42.676;23.352;2023-03-09T14:44:37;3.80;;;1.00;;
56830;SDS011;42713;42.676;23.352;2023-03-09T14:47:06;3.15;;;0.98;;
56830;SDS011;42713;42.676;23.352;2023-03-09T14:49:40;5.18;;;1.27;;
56830;SDS011;42713;42.676;23.352;2023-03-09T14:52:08;3.63;;;1.10;;
56830;SDS011;42713;42.676;23.352;2023-03-09T14:54:36;2.38;;;1.00;;
56830;SDS011;42713;42.676;23.352;2023-03-09T14:57:02;3.25;;;1.08;;
56830;SDS011;42713;42.676;23.352;2023-03-09T14:59:28;2.97;;;1.10;;
56830;SDS011;42713;42.676;23.352;2023-03-09T15:01:55;6.07;;;1.17;;
56830;SDS011;42713;42.676;23.352;2023-03-09T15:04:25;7.03;;;1.58;;
56830;SDS011;42713;42.676;23.352;2023-03-09T15:06:52;5.20;;;1.17;;
56830;SDS011;42713;42.676;23.352;2023-03-09T15:09:18;3.78;;;1.30;;
56830;SDS011;42713;42.676;23.352;2023-03-09T15:11:44;5.15;;;1.23;;
56830;SDS011;42713;42.676;23.352;2023-03-09T15:14:15;4.25;;;1.35;;
56830;SDS011;42713;42.676;23.352;2023-03-09T15:16:48;4.15;;;1.35;;
56830;SDS011;42713;42.676;23.352;2023-03-09T15:19:15;7.25;;;1.25;;
56830;SDS011;42713;42.676;23.352;2023-03-09T15:21:42;5.00;;;1.33;;
56830;SDS011;42713;42.676;23.352;2023-03-09T15:24:08;5.95;;;1.55;;
56830;SDS011;42713;42.676;23.352;2023-03-09T15:26:35;5.55;;;1.40;;
56830;SDS011;42713;42.676;23.352;2023-03-09T15:29:00;3.65;;;1.17;;
56830;SDS011;42713;42.676;23.352;2023-03-09T15:31:26;5.80;;;1.20;;
56830;SDS011;42713;42.676;23.352;2023-03-09T15:33:51;6.70;;;1.40;;
56830;SDS011;42713;42.676;23.352;2023-03-09T15:36:17;4.40;;;1.20;;
56830;SDS011;42713;42.676;23.352;2023-03-09T15:38:42;3.47;;;1.25;;
56830;SDS011;42713;42.676;23.352;2023-03-09T15:41:09;4.32;;;1.25;;
56830;SDS011;42713;42.676;23.352;2023-03-09T15:43:35;4.43;;;1.23;;
56830;SDS011;42713;42.676;23.352;2023-03-09T15:46:04;3.95;;;1.20;;
56830;SDS011;42713;42.676;23.352;2023-03-09T15:48:30;4.22;;;1.38;;
56830;SDS011;42713;42.676;23.352;2023-03-09T15:50:56;6.63;;;1.50;;
56830;SDS011;42713;42.676;23.352;2023-03-09T15:53:21;6.10;;;1.52;;
56830;SDS011;42713;42.676;23.352;2023-03-09T15:55:54;6.05;;;1.48;;
56830;SDS011;42713;42.676;23.352;2023-03-09T15:58:24;5.65;;;1.50;;
56830;SDS011;42713;42.676;23.352;2023-03-09T16:00:50;10.40;;;1.67;;
56830;SDS011;42713;42.676;23.352;2023-03-09T16:03:20;5.35;;;1.70;;
56830;SDS011;42713;42.676;23.352;2023-03-09T16:05:46;5.90;;;1.73;;
56830;SDS011;42713;42.676;23.352;2023-03-09T16:08:12;6.22;;;1.52;;
56830;SDS011;42713;42.676;23.352;2023-03-09T16:10:37;4.43;;;1.30;;
56830;SDS011;42713;42.676;23.352;2023-03-09T16:13:03;5.60;;;1.70;;
56830;SDS011;42713;42.676;23.352;2023-03-09T16:15:28;4.85;;;1.63;;
56830;SDS011;42713;42.676;23.352;2023-03-09T16:17:54;5.55;;;1.70;;
56830;SDS011;42713;42.676;23.352;2023-03-09T16:20:20;6.60;;;1.80;;
56830;SDS011;42713;42.676;23.352;2023-03-09T16:22:46;8.25;;;1.52;;
56830;SDS011;42713;42.676;23.352;2023-03-09T16:25:13;6.43;;;1.60;;